Airfield :
LOGIN :

Register | Disclaimer

   EN    FR    IT 

 










Legend :    VFR   Marginal VFR   IFR   Intensive IFR   Very Intensive IFR
Visi :
Ceiling :
>= 8 km
>= 3000ft
5 to 8 km
1000 to 3000 ft
1500m to 5 km
500 to 1000 ft
800 to 1500m
200 to 500 ft
< 800m
< 200 ft
Symbols :   Thunderstorms  Fog  Heavy snow  Heavy precipitations  Wind > 20 kt
SIGMETs :     Misc.  Thunderstorms  Icing  Turbulence  Mountain Waves  Volcanic Ashes






- Airport Elevation : 17 ft
- IATA code : GRQ


EHGG - Groningen Eelde

CURRENT METAR :
  • 161655Z AUTO 17010KT 9999 -SG SCT028 BKN032 01/M03 Q1018 BECMG 4000 -SN BKN012

EXPIRED METARs :
  • 161625Z AUTO 17008KT 9999 FEW046 01/M03 Q1018 BECMG 2000 -SN BKN012
  • 161555Z AUTO 18009KT 140V220 9999 NSC 01/M03 Q1019 BECMG 2000 -SN BKN008
  • 161525Z AUTO 19007KT 9999 SCT043 01/M03 Q1020 NOSIG
  • 161455Z AUTO 19008KT 150V220 9999 SCT043 01/M03 Q1020 NOSIG
  • 161425Z AUTO 20009KT 160V230 9999 OVC045 02/M03 Q1020 NOSIG

TAF TAF EHGG
Valid from the 16 at 12:00 until the 17 at 18:00 UTC


161119Z 1612/1718 19009KT 9999 OVC040
BECMG 1617/1619 2000 -SN OVC012
TEMPO 1617/1622 0700 SN VV003
BECMG 1622/1701 BKN003
PROB40
TEMPO 1622/1708 1200 -FZDZ BR BKN001
BECMG 1708/1710 4000 BR -RA SCT003 BKN005
BECMG 1711/1713 29010KT 9999 NSW SCT025
PROB30
TEMPO 1713/1718 7000 -SHRA SCT020TCU BKN025



MET'MAP, your aeronautical weather chart ! - Copyright ORBIFLY December 2007 - Disclaimer

ORBIFLY MET'MAP TEAM :

Programming & Development : Alexandra Zaïnal
Concept & original design : Baudouin d'Aumeries
Assistance for programming : Marc-Olivier Méhu
Technical & hardware support : Manuel Goepfert

Contact : metmap@orbifly.com




SOURCES & CREDITS :

   NOAA